Maersk Vallvik — 9V8839 — position and weather

sailwx.info

Track history (hours):
 
Tides and Currents Weather Stations Pressure Air Temp Water Temp Dewpoint Dewpoint Depression Visibility Wind Speed Wind Dir Waves Ship Positions

Maersk Vallvik

Last reported at 2014-Sep-11 07:10 UTC. Time now 2014-Sep-23 00:24 UTC.
Position S 33°04' E 017°16'.
Warning: this ship's position is 11 days out of date.

Length 180 m; draft 8.7 m.

Type: Ship (hazmat cat A). MMSI: 564837000.

Date/timePositionNaut miles runAvg speedWind from/ knotsBaromVisibWave heightAir tempDewpointWater temp
2014-Sep-11 07:10S 33°04' E 017°16'914.2
2014-Sep-11 06:32S 33°10' E 017°24'1513.9
2014-Sep-11 05:26S 33°20' E 017°38'1614.1
2014-Sep-11 04:19S 33°30' E 017°53'1214.0
2014-Sep-11 03:27S 33°37' E 018°05'1313.6
2014-Sep-11 02:30S 33°46' E 018°16'1212.6
2014-Sep-11 01:34S 33°54' E 018°26'1 1.0
2014-Sep-11 00:32S 33°55' E 018°26'0 0.0
2014-Sep-10 23:32S 33°55' E 018°26'0 0.0
2014-Sep-10 22:32S 33°55' E 018°26'0 0.0
2014-Sep-10 21:32S 33°55' E 018°26'0 0.0
2014-Sep-10 20:29S 33°55' E 018°26'0 0.0
2014-Sep-10 19:32S 33°55' E 018°26'0 0.0
2014-Sep-10 18:32S 33°55' E 018°26'0 0.0
2014-Sep-10 17:29S 33°55' E 018°26'0 0.0
2014-Sep-10 16:32S 33°55' E 018°26'0 0.0
2014-Sep-10 15:32S 33°55' E 018°26'0 0.0
2014-Sep-10 14:23S 33°55' E 018°26'0 0.0
2014-Sep-10 13:32S 33°55' E 018°26'0 0.0
2014-Sep-10 12:32S 33°55' E 018°26'0 0.0
2014-Sep-10 11:32S 33°55' E 018°26'0 0.0
2014-Sep-10 10:32S 33°55' E 018°26'0 0.0
2014-Sep-10 09:32S 33°55' E 018°26'0 0.0
2014-Sep-10 08:29S 33°55' E 018°26'0 0.0
2014-Sep-10 07:32S 33°55' E 018°26'0 0.0
2014-Sep-10 06:29S 33°55' E 018°26'0 0.0
2014-Sep-10 05:29S 33°55' E 018°26'0 0.0
2014-Sep-10 04:29S 33°55' E 018°26'0 0.0
2014-Sep-10 03:32S 33°55' E 018°26'0 0.0
2014-Sep-10 02:29S 33°55' E 018°26'0 0.2
2014-Sep-10 01:33S 33°55' E 018°26'3 3.0
2014-Sep-10 00:33S 33°52' E 018°27'0 0.1
2014-Sep-09 23:31S 33°52' E 018°27'0 0.0
2014-Sep-09 22:31S 33°52' E 018°27'0 0.0
2014-Sep-09 21:33S 33°52' E 018°27'0 0.0
2014-Sep-09 20:33S 33°52' E 018°27'0 0.0
2014-Sep-09 19:33S 33°52' E 018°27'6 5.8
2014-Sep-09 18:32S 33°53' E 018°20'1111.2
2014-Sep-09 17:33S 34°04' E 018°15'1212.1
2014-Sep-09 16:33S 34°16' E 018°15'1312.6
2014-Sep-09 15:33S 34°27' E 018°22'1412.6
2014-Sep-09 14:25S 34°33' E 018°37'1113.1
2014-Sep-09 13:32S 34°38' E 018°50'1313.1
2014-Sep-09 12:32S 34°43' E 019°05'2813.4
2014-Sep-09 10:24S 34°55' E 019°37'3813.1
2014-Sep-09 07:32S 34°57' E 020°23'26713.1
2014-Sep-08 11:07S 34°12' E 025°42'812.8
2014-Sep-08 10:30S 34°09' E 025°51'28113.3
2014-Sep-07 13:23S 31°13' E 030°12'1517.7
2014-Sep-07 12:33S 31°01' E 030°22'2017.2
2014-Sep-07 11:21S 30°44' E 030°35'1716.6
2014-Sep-07 10:20S 30°29' E 030°45'1316.5
2014-Sep-07 09:31S 30°18' E 030°53'1515.3
2014-Sep-07 08:33S 30°05' E 031°02'1413.8
2014-Sep-07 07:33S 29°52' E 031°08'7 2.1
2014-Sep-07 04:23S 29°53' E 031°00'0 0.0
2014-Sep-07 03:29S 29°53' E 031°00'0 0.0
2014-Sep-07 02:23S 29°53' E 031°00'0 0.0
2014-Sep-07 00:05S 29°53' E 031°00'0 0.0
2014-Sep-06 23:23S 29°53' E 031°00'0 0.0
2014-Sep-06 22:23S 29°53' E 031°00'0 0.0
2014-Sep-06 21:29S 29°53' E 031°00'0 0.0
2014-Sep-06 20:29S 29°53' E 031°00'0 0.0
2014-Sep-06 19:29S 29°53' E 031°00'0 0.0
2014-Sep-06 18:05S 29°53' E 031°00'0 0.0
2014-Sep-06 16:29S 29°53' E 031°00'0 0.0
2014-Sep-06 15:29S 29°53' E 031°00'0 0.0
2014-Sep-06 14:29S 29°53' E 031°00'0 0.0
2014-Sep-06 13:17S 29°53' E 031°00'0 0.0
2014-Sep-06 12:05S 29°53' E 031°00'0 0.0
2014-Sep-06 09:29S 29°53' E 031°00'0 0.0
2014-Sep-06 08:11S 29°53' E 031°00'0 0.0
2014-Sep-06 04:29S 29°53' E 031°00'0 0.0
2014-Sep-06 03:29S 29°53' E 031°00'0 0.0
2014-Sep-06 02:29S 29°53' E 031°00'0 0.0
2014-Sep-06 01:05S 29°53' E 031°00'0 0.0
2014-Sep-06 00:23S 29°53' E 031°00'0 0.0
2014-Sep-05 23:29S 29°53' E 031°00'0 0.0
2014-Sep-05 22:29S 29°53' E 031°00'0 0.0
2014-Sep-05 21:17S 29°53' E 031°00'0 0.0
2014-Sep-05 20:29S 29°53' E 031°00'0 0.0
2014-Sep-05 19:11S 29°53' E 031°00'0 0.0
2014-Sep-05 18:29S 29°53' E 031°00'0 0.0
2014-Sep-05 17:17S 29°53' E 031°00'0 0.0
2014-Sep-05 16:23S 29°53' E 031°00'0 0.0
2014-Sep-05 15:11S 29°53' E 031°00'0 0.0
2014-Sep-05 14:23S 29°53' E 031°00'0 0.0
2014-Sep-05 13:11S 29°53' E 031°00'0 0.0
2014-Sep-05 12:23S 29°53' E 031°00'0 0.0
2014-Sep-05 11:29S 29°53' E 031°00'0 0.0
2014-Sep-05 10:29S 29°53' E 031°00'0 0.0
2014-Sep-05 09:23S 29°53' E 031°00'0 0.0
2014-Sep-05 08:23S 29°53' E 031°00'0 0.0
2014-Sep-05 07:17S 29°53' E 031°00'0 0.0
2014-Sep-05 06:23S 29°53' E 031°00'0 0.0
2014-Sep-05 03:17S 29°53' E 031°00'0 0.0
2014-Sep-05 02:17S 29°53' E 031°00'0 0.0
2014-Sep-05 01:23S 29°53' E 031°00'0 0.0
2014-Sep-05 00:29S 29°53' E 031°00'0 0.0
2014-Sep-04 23:23S 29°53' E 031°00'0 0.0
2014-Sep-04 22:29S 29°53' E 031°00'0 0.0
2014-Sep-04 21:29S 29°53' E 031°00'0 0.0
2014-Sep-04 20:29S 29°53' E 031°00'0 0.0
2014-Sep-04 19:29S 29°53' E 031°00'0 0.0
2014-Sep-04 17:27S 29°53' E 031°00'0 0.0
2014-Sep-04 16:33S 29°53' E 031°00'0 0.0
2014-Sep-04 15:33S 29°53' E 031°00'0 0.0
2014-Sep-04 14:33S 29°53' E 031°00'0 0.0
2014-Sep-04 13:33S 29°53' E 031°00'0 0.0
2014-Sep-04 12:33S 29°53' E 031°00'0 0.0
2014-Sep-04 11:33S 29°53' E 031°00'0 0.0
2014-Sep-04 10:32S 29°53' E 031°00'0 0.0
2014-Sep-04 09:33S 29°53' E 031°00'2 1.8
2014-Sep-04 08:33S 29°52' E 031°02'6 5.7
2014-Sep-04 07:33S 29°48' E 031°07'2 1.8
2014-Sep-04 06:33S 29°47' E 031°08'7 6.8
2014-Sep-04 05:33S 29°40' E 031°11'0 0.4
2014-Sep-04 04:30S 29°40' E 031°11'0 0.0
2014-Sep-04 03:18S 29°40' E 031°11'0 0.1
2014-Sep-04 02:24S 29°40' E 031°11'0 0.0
2014-Sep-04 01:24S 29°40' E 031°11'0 0.0
2014-Sep-04 00:24S 29°40' E 031°11'0 0.0
2014-Sep-03 23:30S 29°40' E 031°11'0 0.0
2014-Sep-03 22:30S 29°40' E 031°11'0 0.0
2014-Sep-03 21:12S 29°40' E 031°11'0 0.0
2014-Sep-03 19:30S 29°40' E 031°11'0 0.0
2014-Sep-03 18:30S 29°40' E 031°11'0 0.0
2014-Sep-03 17:30S 29°40' E 031°11'0 0.0
2014-Sep-03 16:30S 29°40' E 031°11'0 0.0
2014-Sep-03 15:30S 29°40' E 031°11'0 0.0
2014-Sep-03 14:06S 29°40' E 031°11'0 0.0
2014-Sep-03 13:24S 29°40' E 031°11'0 0.3
2014-Sep-03 12:33S 29°40' E 031°11'1110.7
2014-Sep-03 11:33S 29°51' E 031°11'7 7.0
2014-Sep-03 10:33S 29°57' E 031°09'7 7.5
2014-Sep-03 09:33S 30°04' E 031°04'8 7.9
2014-Sep-03 08:33S 30°10' E 030°58'9 8.8
2014-Sep-03 07:33S 30°18' E 030°53'  
Track history (hours):
 
Tides and Currents Weather Stations Pressure Air Temp Water Temp Dewpoint Dewpoint Depression Visibility Wind Speed Wind Dir Waves Ship Positions

Maersk Vallvik

Last reported at 2014-Sep-11 07:10 UTC. Time now 2014-Sep-23 00:24 UTC.
Position S 33°04' E 017°16'.
Warning: this ship's position is 11 days out of date.

Length 180 m; draft 8.7 m.

Type: Ship (hazmat cat A). MMSI: 564837000.

Date/timePositionNaut miles runAvg speedWind from/ knotsBaromVisibWave heightAir tempDewpointWater temp
2014-Sep-11 07:10S 33°04' E 017°16'914.2
2014-Sep-11 06:32S 33°10' E 017°24'1513.9
2014-Sep-11 05:26S 33°20' E 017°38'1614.1
2014-Sep-11 04:19S 33°30' E 017°53'1214.0
2014-Sep-11 03:27S 33°37' E 018°05'1313.6
2014-Sep-11 02:30S 33°46' E 018°16'1212.6
2014-Sep-11 01:34S 33°54' E 018°26'1 1.0
2014-Sep-11 00:32S 33°55' E 018°26'0 0.0
2014-Sep-10 23:32S 33°55' E 018°26'0 0.0
2014-Sep-10 22:32S 33°55' E 018°26'0 0.0
2014-Sep-10 21:32S 33°55' E 018°26'0 0.0
2014-Sep-10 20:29S 33°55' E 018°26'0 0.0
2014-Sep-10 19:32S 33°55' E 018°26'0 0.0
2014-Sep-10 18:32S 33°55' E 018°26'0 0.0
2014-Sep-10 17:29S 33°55' E 018°26'0 0.0
2014-Sep-10 16:32S 33°55' E 018°26'0 0.0
2014-Sep-10 15:32S 33°55' E 018°26'0 0.0
2014-Sep-10 14:23S 33°55' E 018°26'0 0.0
2014-Sep-10 13:32S 33°55' E 018°26'0 0.0
2014-Sep-10 12:32S 33°55' E 018°26'0 0.0
2014-Sep-10 11:32S 33°55' E 018°26'0 0.0
2014-Sep-10 10:32S 33°55' E 018°26'0 0.0
2014-Sep-10 09:32S 33°55' E 018°26'0 0.0
2014-Sep-10 08:29S 33°55' E 018°26'0 0.0
2014-Sep-10 07:32S 33°55' E 018°26'0 0.0
2014-Sep-10 06:29S 33°55' E 018°26'0 0.0
2014-Sep-10 05:29S 33°55' E 018°26'0 0.0
2014-Sep-10 04:29S 33°55' E 018°26'0 0.0
2014-Sep-10 03:32S 33°55' E 018°26'0 0.0
2014-Sep-10 02:29S 33°55' E 018°26'0 0.2
2014-Sep-10 01:33S 33°55' E 018°26'3 3.0
2014-Sep-10 00:33S 33°52' E 018°27'0 0.1
2014-Sep-09 23:31S 33°52' E 018°27'0 0.0
2014-Sep-09 22:31S 33°52' E 018°27'0 0.0
2014-Sep-09 21:33S 33°52' E 018°27'0 0.0
2014-Sep-09 20:33S 33°52' E 018°27'0 0.0
2014-Sep-09 19:33S 33°52' E 018°27'6 5.8
2014-Sep-09 18:32S 33°53' E 018°20'1111.2
2014-Sep-09 17:33S 34°04' E 018°15'1212.1
2014-Sep-09 16:33S 34°16' E 018°15'1312.6
2014-Sep-09 15:33S 34°27' E 018°22'1412.6
2014-Sep-09 14:25S 34°33' E 018°37'1113.1
2014-Sep-09 13:32S 34°38' E 018°50'1313.1
2014-Sep-09 12:32S 34°43' E 019°05'2813.4
2014-Sep-09 10:24S 34°55' E 019°37'3813.1
2014-Sep-09 07:32S 34°57' E 020°23'26713.1
2014-Sep-08 11:07S 34°12' E 025°42'812.8
2014-Sep-08 10:30S 34°09' E 025°51'28113.3
2014-Sep-07 13:23S 31°13' E 030°12'1517.7
2014-Sep-07 12:33S 31°01' E 030°22'2017.2
2014-Sep-07 11:21S 30°44' E 030°35'1716.6
2014-Sep-07 10:20S 30°29' E 030°45'1316.5
2014-Sep-07 09:31S 30°18' E 030°53'1515.3
2014-Sep-07 08:33S 30°05' E 031°02'1413.8
2014-Sep-07 07:33S 29°52' E 031°08'7 2.1
2014-Sep-07 04:23S 29°53' E 031°00'0 0.0
2014-Sep-07 03:29S 29°53' E 031°00'0 0.0
2014-Sep-07 02:23S 29°53' E 031°00'0 0.0
2014-Sep-07 00:05S 29°53' E 031°00'0 0.0
2014-Sep-06 23:23S 29°53' E 031°00'0 0.0
2014-Sep-06 22:23S 29°53' E 031°00'0 0.0
2014-Sep-06 21:29S 29°53' E 031°00'0 0.0
2014-Sep-06 20:29S 29°53' E 031°00'0 0.0
2014-Sep-06 19:29S 29°53' E 031°00'0 0.0
2014-Sep-06 18:05S 29°53' E 031°00'0 0.0
2014-Sep-06 16:29S 29°53' E 031°00'0 0.0
2014-Sep-06 15:29S 29°53' E 031°00'0 0.0
2014-Sep-06 14:29S 29°53' E 031°00'0 0.0
2014-Sep-06 13:17S 29°53' E 031°00'0 0.0
2014-Sep-06 12:05S 29°53' E 031°00'0 0.0
2014-Sep-06 09:29S 29°53' E 031°00'0 0.0
2014-Sep-06 08:11S 29°53' E 031°00'0 0.0
2014-Sep-06 04:29S 29°53' E 031°00'0 0.0
2014-Sep-06 03:29S 29°53' E 031°00'0 0.0
2014-Sep-06 02:29S 29°53' E 031°00'0 0.0
2014-Sep-06 01:05S 29°53' E 031°00'0 0.0
2014-Sep-06 00:23S 29°53' E 031°00'0 0.0
2014-Sep-05 23:29S 29°53' E 031°00'0 0.0
2014-Sep-05 22:29S 29°53' E 031°00'0 0.0
2014-Sep-05 21:17S 29°53' E 031°00'0 0.0
2014-Sep-05 20:29S 29°53' E 031°00'0 0.0
2014-Sep-05 19:11S 29°53' E 031°00'0 0.0
2014-Sep-05 18:29S 29°53' E 031°00'0 0.0
2014-Sep-05 17:17S 29°53' E 031°00'0 0.0
2014-Sep-05 16:23S 29°53' E 031°00'0 0.0
2014-Sep-05 15:11S 29°53' E 031°00'0 0.0
2014-Sep-05 14:23S 29°53' E 031°00'0 0.0
2014-Sep-05 13:11S 29°53' E 031°00'0 0.0
2014-Sep-05 12:23S 29°53' E 031°00'0 0.0
2014-Sep-05 11:29S 29°53' E 031°00'0 0.0
2014-Sep-05 10:29S 29°53' E 031°00'0 0.0
2014-Sep-05 09:23S 29°53' E 031°00'0 0.0
2014-Sep-05 08:23S 29°53' E 031°00'0 0.0
2014-Sep-05 07:17S 29°53' E 031°00'0 0.0
2014-Sep-05 06:23S 29°53' E 031°00'0 0.0
2014-Sep-05 03:17S 29°53' E 031°00'0 0.0
2014-Sep-05 02:17S 29°53' E 031°00'0 0.0
2014-Sep-05 01:23S 29°53' E 031°00'0 0.0
2014-Sep-05 00:29S 29°53' E 031°00'0 0.0
2014-Sep-04 23:23S 29°53' E 031°00'0 0.0
2014-Sep-04 22:29S 29°53' E 031°00'0 0.0
2014-Sep-04 21:29S 29°53' E 031°00'0 0.0
2014-Sep-04 20:29S 29°53' E 031°00'0 0.0
2014-Sep-04 19:29S 29°53' E 031°00'0 0.0
2014-Sep-04 17:27S 29°53' E 031°00'0 0.0
2014-Sep-04 16:33S 29°53' E 031°00'0 0.0
2014-Sep-04 15:33S 29°53' E 031°00'0 0.0
2014-Sep-04 14:33S 29°53' E 031°00'0 0.0
2014-Sep-04 13:33S 29°53' E 031°00'0 0.0
2014-Sep-04 12:33S 29°53' E 031°00'0 0.0
2014-Sep-04 11:33S 29°53' E 031°00'0 0.0
2014-Sep-04 10:32S 29°53' E 031°00'0 0.0
2014-Sep-04 09:33S 29°53' E 031°00'2 1.8
2014-Sep-04 08:33S 29°52' E 031°02'6 5.7
2014-Sep-04 07:33S 29°48' E 031°07'2 1.8
2014-Sep-04 06:33S 29°47' E 031°08'7 6.8
2014-Sep-04 05:33S 29°40' E 031°11'0 0.4
2014-Sep-04 04:30S 29°40' E 031°11'0 0.0
2014-Sep-04 03:18S 29°40' E 031°11'0 0.1
2014-Sep-04 02:24S 29°40' E 031°11'0 0.0
2014-Sep-04 01:24S 29°40' E 031°11'0 0.0
2014-Sep-04 00:24S 29°40' E 031°11'0 0.0
2014-Sep-03 23:30S 29°40' E 031°11'0 0.0
2014-Sep-03 22:30S 29°40' E 031°11'0 0.0
2014-Sep-03 21:12S 29°40' E 031°11'0 0.0
2014-Sep-03 19:30S 29°40' E 031°11'0 0.0
2014-Sep-03 18:30S 29°40' E 031°11'0 0.0
2014-Sep-03 17:30S 29°40' E 031°11'0 0.0
2014-Sep-03 16:30S 29°40' E 031°11'0 0.0
2014-Sep-03 15:30S 29°40' E 031°11'0 0.0
2014-Sep-03 14:06S 29°40' E 031°11'0 0.0
2014-Sep-03 13:24S 29°40' E 031°11'0 0.3
2014-Sep-03 12:33S 29°40' E 031°11'1110.7
2014-Sep-03 11:33S 29°51' E 031°11'7 7.0
2014-Sep-03 10:33S 29°57' E 031°09'7 7.5
2014-Sep-03 09:33S 30°04' E 031°04'8 7.9
2014-Sep-03 08:33S 30°10' E 030°58'9 8.8
2014-Sep-03 07:33S 30°18' E 030°53'  

Dump ship's entire track history